sensor_id;sensor_type;location;lat;lon;timestamp;P1;durP1;ratioP1;P2;durP2;ratioP2
11094;SDS011;5601;44.490;11.400;2022-07-29T00:01:50;13.40;;;9.77;;
11094;SDS011;5601;44.490;11.400;2022-07-29T00:04:18;19.83;;;7.25;;
11094;SDS011;5601;44.490;11.400;2022-07-29T00:06:48;23.73;;;9.63;;
11094;SDS011;5601;44.490;11.400;2022-07-29T00:09:15;22.15;;;7.22;;
11094;SDS011;5601;44.490;11.400;2022-07-29T00:11:42;17.70;;;8.23;;
11094;SDS011;5601;44.490;11.400;2022-07-29T00:14:10;11.20;;;5.78;;
11094;SDS011;5601;44.490;11.400;2022-07-29T00:16:37;10.32;;;6.07;;
11094;SDS011;5601;44.490;11.400;2022-07-29T00:19:04;10.10;;;6.10;;
11094;SDS011;5601;44.490;11.400;2022-07-29T00:21:32;6.38;;;5.22;;
11094;SDS011;5601;44.490;11.400;2022-07-29T00:24:01;10.85;;;5.30;;
11094;SDS011;5601;44.490;11.400;2022-07-29T00:26:28;8.55;;;6.22;;
11094;SDS011;5601;44.490;11.400;2022-07-29T00:28:57;11.38;;;4.78;;
11094;SDS011;5601;44.490;11.400;2022-07-29T00:31:24;7.80;;;5.75;;
11094;SDS011;5601;44.490;11.400;2022-07-29T00:33:52;7.05;;;4.85;;
11094;SDS011;5601;44.490;11.400;2022-07-29T00:36:19;10.07;;;4.93;;
11094;SDS011;5601;44.490;11.400;2022-07-29T00:38:46;6.57;;;4.95;;
11094;SDS011;5601;44.490;11.400;2022-07-29T00:41:15;8.07;;;5.53;;
11094;SDS011;5601;44.490;11.400;2022-07-29T00:43:43;11.68;;;8.38;;
11094;SDS011;5601;44.490;11.400;2022-07-29T00:46:11;10.75;;;7.60;;
11094;SDS011;5601;44.490;11.400;2022-07-29T00:48:38;11.13;;;6.55;;
11094;SDS011;5601;44.490;11.400;2022-07-29T00:51:06;6.20;;;5.03;;
11094;SDS011;5601;44.490;11.400;2022-07-29T00:53:35;6.40;;;4.57;;
11094;SDS011;5601;44.490;11.400;2022-07-29T00:56:03;7.18;;;4.50;;
11094;SDS011;5601;44.490;11.400;2022-07-29T00:58:32;5.35;;;4.70;;
11094;SDS011;5601;44.490;11.400;2022-07-29T01:01:00;6.88;;;4.38;;
11094;SDS011;5601;44.490;11.400;2022-07-29T01:03:28;5.68;;;4.45;;
11094;SDS011;5601;44.490;11.400;2022-07-29T01:05:55;6.15;;;4.25;;
11094;SDS011;5601;44.490;11.400;2022-07-29T01:08:23;6.68;;;4.43;;
11094;SDS011;5601;44.490;11.400;2022-07-29T01:10:51;6.55;;;4.30;;
11094;SDS011;5601;44.490;11.400;2022-07-29T01:13:19;7.25;;;4.75;;
11094;SDS011;5601;44.490;11.400;2022-07-29T01:15:49;6.18;;;4.75;;
11094;SDS011;5601;44.490;11.400;2022-07-29T01:18:22;6.88;;;4.15;;
11094;SDS011;5601;44.490;11.400;2022-07-29T01:21:11;6.25;;;4.03;;
11094;SDS011;5601;44.490;11.400;2022-07-29T01:23:59;9.90;;;5.22;;
11094;SDS011;5601;44.490;11.400;2022-07-29T01:26:42;6.60;;;4.47;;
11094;SDS011;5601;44.490;11.400;2022-07-29T01:29:17;6.60;;;4.65;;
11094;SDS011;5601;44.490;11.400;2022-07-29T01:31:51;14.40;;;5.75;;
11094;SDS011;5601;44.490;11.400;2022-07-29T01:34:23;5.20;;;4.55;;
11094;SDS011;5601;44.490;11.400;2022-07-29T01:36:58;5.78;;;3.83;;
11094;SDS011;5601;44.490;11.400;2022-07-29T01:39:32;7.03;;;4.32;;
11094;SDS011;5601;44.490;11.400;2022-07-29T01:42:05;5.70;;;4.30;;
11094;SDS011;5601;44.490;11.400;2022-07-29T01:44:41;5.20;;;4.40;;
11094;SDS011;5601;44.490;11.400;2022-07-29T01:47:15;7.00;;;3.78;;
11094;SDS011;5601;44.490;11.400;2022-07-29T01:49:47;8.43;;;4.22;;
11094;SDS011;5601;44.490;11.400;2022-07-29T01:52:19;8.35;;;4.15;;
11094;SDS011;5601;44.490;11.400;2022-07-29T01:54:49;6.50;;;3.97;;
11094;SDS011;5601;44.490;11.400;2022-07-29T01:57:20;5.75;;;3.90;;
11094;SDS011;5601;44.490;11.400;2022-07-29T01:59:53;5.65;;;4.70;;
11094;SDS011;5601;44.490;11.400;2022-07-29T02:02:22;8.63;;;4.70;;
11094;SDS011;5601;44.490;11.400;2022-07-29T02:04:51;6.05;;;4.43;;
11094;SDS011;5601;44.490;11.400;2022-07-29T02:07:21;8.38;;;4.10;;
11094;SDS011;5601;44.490;11.400;2022-07-29T02:09:51;5.53;;;4.38;;
11094;SDS011;5601;44.490;11.400;2022-07-29T02:12:20;7.78;;;4.82;;
11094;SDS011;5601;44.490;11.400;2022-07-29T02:14:51;12.10;;;5.20;;
11094;SDS011;5601;44.490;11.400;2022-07-29T02:17:21;7.07;;;4.93;;
11094;SDS011;5601;44.490;11.400;2022-07-29T02:19:52;7.18;;;4.45;;
11094;SDS011;5601;44.490;11.400;2022-07-29T02:22:23;6.30;;;4.70;;
11094;SDS011;5601;44.490;11.400;2022-07-29T02:24:52;7.97;;;4.90;;
11094;SDS011;5601;44.490;11.400;2022-07-29T02:27:22;6.60;;;4.70;;
11094;SDS011;5601;44.490;11.400;2022-07-29T02:29:54;9.57;;;4.90;;
11094;SDS011;5601;44.490;11.400;2022-07-29T02:32:24;9.05;;;4.93;;
11094;SDS011;5601;44.490;11.400;2022-07-29T02:34:52;6.43;;;5.00;;
11094;SDS011;5601;44.490;11.400;2022-07-29T02:37:21;8.95;;;5.15;;
11094;SDS011;5601;44.490;11.400;2022-07-29T02:39:49;6.88;;;5.03;;
11094;SDS011;5601;44.490;11.400;2022-07-29T02:42:21;8.65;;;5.13;;
11094;SDS011;5601;44.490;11.400;2022-07-29T02:44:49;6.43;;;5.00;;
11094;SDS011;5601;44.490;11.400;2022-07-29T02:47:19;5.82;;;5.18;;
11094;SDS011;5601;44.490;11.400;2022-07-29T02:49:52;7.93;;;4.65;;
11094;SDS011;5601;44.490;11.400;2022-07-29T02:52:26;7.05;;;4.90;;
11094;SDS011;5601;44.490;11.400;2022-07-29T02:54:58;6.25;;;4.97;;
11094;SDS011;5601;44.490;11.400;2022-07-29T02:57:30;7.88;;;5.18;;
11094;SDS011;5601;44.490;11.400;2022-07-29T03:00:02;6.85;;;4.80;;
11094;SDS011;5601;44.490;11.400;2022-07-29T03:02:35;7.00;;;5.00;;
11094;SDS011;5601;44.490;11.400;2022-07-29T03:05:06;9.93;;;5.32;;
11094;SDS011;5601;44.490;11.400;2022-07-29T03:07:37;12.77;;;5.13;;
11094;SDS011;5601;44.490;11.400;2022-07-29T03:10:07;8.60;;;4.80;;
11094;SDS011;5601;44.490;11.400;2022-07-29T03:12:35;5.43;;;4.70;;
11094;SDS011;5601;44.490;11.400;2022-07-29T03:15:03;6.82;;;4.80;;
11094;SDS011;5601;44.490;11.400;2022-07-29T03:17:34;7.35;;;4.88;;
11094;SDS011;5601;44.490;11.400;2022-07-29T03:20:04;9.80;;;4.75;;
11094;SDS011;5601;44.490;11.400;2022-07-29T03:22:32;8.90;;;5.28;;
11094;SDS011;5601;44.490;11.400;2022-07-29T03:25:07;7.38;;;5.05;;
11094;SDS011;5601;44.490;11.400;2022-07-29T03:27:35;6.85;;;4.63;;
11094;SDS011;5601;44.490;11.400;2022-07-29T03:30:02;6.68;;;4.55;;
11094;SDS011;5601;44.490;11.400;2022-07-29T03:32:30;5.38;;;4.43;;
11094;SDS011;5601;44.490;11.400;2022-07-29T03:34:59;5.78;;;4.53;;
11094;SDS011;5601;44.490;11.400;2022-07-29T03:37:27;7.63;;;4.55;;
11094;SDS011;5601;44.490;11.400;2022-07-29T03:39:55;6.78;;;4.75;;
11094;SDS011;5601;44.490;11.400;2022-07-29T03:42:24;8.27;;;4.80;;
11094;SDS011;5601;44.490;11.400;2022-07-29T03:44:54;6.70;;;4.72;;
11094;SDS011;5601;44.490;11.400;2022-07-29T03:47:24;7.28;;;4.82;;
11094;SDS011;5601;44.490;11.400;2022-07-29T03:49:56;9.27;;;5.00;;
11094;SDS011;5601;44.490;11.400;2022-07-29T03:52:30;6.63;;;4.80;;
11094;SDS011;5601;44.490;11.400;2022-07-29T03:54:58;5.80;;;4.40;;
11094;SDS011;5601;44.490;11.400;2022-07-29T03:57:27;6.43;;;4.50;;
11094;SDS011;5601;44.490;11.400;2022-07-29T03:59:54;6.88;;;4.97;;
11094;SDS011;5601;44.490;11.400;2022-07-29T04:02:22;5.80;;;4.60;;
11094;SDS011;5601;44.490;11.400;2022-07-29T04:04:51;5.50;;;3.97;;
11094;SDS011;5601;44.490;11.400;2022-07-29T04:07:20;7.10;;;4.30;;
11094;SDS011;5601;44.490;11.400;2022-07-29T04:09:47;8.55;;;4.47;;
11094;SDS011;5601;44.490;11.400;2022-07-29T04:12:15;5.78;;;4.55;;
11094;SDS011;5601;44.490;11.400;2022-07-29T04:14:42;5.90;;;4.80;;
11094;SDS011;5601;44.490;11.400;2022-07-29T04:17:10;6.00;;;4.13;;
11094;SDS011;5601;44.490;11.400;2022-07-29T04:19:37;11.55;;;4.82;;
11094;SDS011;5601;44.490;11.400;2022-07-29T04:22:05;6.55;;;4.30;;
11094;SDS011;5601;44.490;11.400;2022-07-29T04:24:34;5.75;;;3.90;;
11094;SDS011;5601;44.490;11.400;2022-07-29T04:27:01;6.38;;;4.15;;
11094;SDS011;5601;44.490;11.400;2022-07-29T04:29:29;8.00;;;4.70;;
11094;SDS011;5601;44.490;11.400;2022-07-29T04:31:57;7.75;;;4.28;;
11094;SDS011;5601;44.490;11.400;2022-07-29T04:34:24;7.03;;;4.25;;
11094;SDS011;5601;44.490;11.400;2022-07-29T04:36:51;4.75;;;3.90;;
11094;SDS011;5601;44.490;11.400;2022-07-29T04:39:19;6.10;;;3.95;;
11094;SDS011;5601;44.490;11.400;2022-07-29T04:41:49;7.35;;;4.60;;
11094;SDS011;5601;44.490;11.400;2022-07-29T04:44:16;4.80;;;4.30;;
11094;SDS011;5601;44.490;11.400;2022-07-29T04:46:44;9.52;;;4.60;;
11094;SDS011;5601;44.490;11.400;2022-07-29T04:49:11;5.40;;;4.22;;
11094;SDS011;5601;44.490;11.400;2022-07-29T04:51:38;7.35;;;4.45;;
11094;SDS011;5601;44.490;11.400;2022-07-29T04:54:06;5.68;;;4.50;;
11094;SDS011;5601;44.490;11.400;2022-07-29T04:56:33;8.38;;;4.78;;
11094;SDS011;5601;44.490;11.400;2022-07-29T04:59:03;7.15;;;4.60;;
11094;SDS011;5601;44.490;11.400;2022-07-29T05:01:30;10.40;;;4.85;;
11094;SDS011;5601;44.490;11.400;2022-07-29T05:03:57;8.38;;;4.95;;
11094;SDS011;5601;44.490;11.400;2022-07-29T05:06:24;13.50;;;4.88;;
11094;SDS011;5601;44.490;11.400;2022-07-29T05:08:52;8.75;;;4.85;;
11094;SDS011;5601;44.490;11.400;2022-07-29T05:11:20;7.47;;;4.45;;
11094;SDS011;5601;44.490;11.400;2022-07-29T05:13:47;7.80;;;5.07;;
11094;SDS011;5601;44.490;11.400;2022-07-29T05:16:16;6.15;;;4.70;;
11094;SDS011;5601;44.490;11.400;2022-07-29T05:18:43;8.60;;;4.05;;
11094;SDS011;5601;44.490;11.400;2022-07-29T05:21:11;8.68;;;4.22;;
11094;SDS011;5601;44.490;11.400;2022-07-29T05:23:39;8.98;;;4.90;;
11094;SDS011;5601;44.490;11.400;2022-07-29T05:26:06;8.57;;;4.40;;
11094;SDS011;5601;44.490;11.400;2022-07-29T05:28:34;8.40;;;4.28;;
11094;SDS011;5601;44.490;11.400;2022-07-29T05:31:01;5.57;;;3.88;;
11094;SDS011;5601;44.490;11.400;2022-07-29T05:33:30;8.88;;;4.25;;
11094;SDS011;5601;44.490;11.400;2022-07-29T05:35:58;4.50;;;3.60;;
11094;SDS011;5601;44.490;11.400;2022-07-29T05:38:25;8.85;;;4.80;;
11094;SDS011;5601;44.490;11.400;2022-07-29T05:40:52;5.43;;;3.88;;
11094;SDS011;5601;44.490;11.400;2022-07-29T05:43:22;7.40;;;4.22;;
11094;SDS011;5601;44.490;11.400;2022-07-29T05:45:49;6.32;;;4.43;;
11094;SDS011;5601;44.490;11.400;2022-07-29T05:48:17;6.78;;;4.15;;
11094;SDS011;5601;44.490;11.400;2022-07-29T05:50:46;8.07;;;4.78;;
11094;SDS011;5601;44.490;11.400;2022-07-29T05:53:14;6.38;;;4.35;;
11094;SDS011;5601;44.490;11.400;2022-07-29T05:55:41;6.93;;;4.13;;
11094;SDS011;5601;44.490;11.400;2022-07-29T05:58:09;6.40;;;4.40;;
11094;SDS011;5601;44.490;11.400;2022-07-29T06:00:37;6.97;;;4.60;;
11094;SDS011;5601;44.490;11.400;2022-07-29T06:03:04;5.07;;;4.13;;
11094;SDS011;5601;44.490;11.400;2022-07-29T06:05:32;7.15;;;4.25;;
11094;SDS011;5601;44.490;11.400;2022-07-29T06:08:02;9.63;;;5.13;;
11094;SDS011;5601;44.490;11.400;2022-07-29T06:10:30;8.68;;;3.97;;
11094;SDS011;5601;44.490;11.400;2022-07-29T06:12:57;6.75;;;4.65;;
11094;SDS011;5601;44.490;11.400;2022-07-29T06:15:25;8.07;;;4.75;;
11094;SDS011;5601;44.490;11.400;2022-07-29T06:17:53;9.48;;;5.47;;
11094;SDS011;5601;44.490;11.400;2022-07-29T06:20:21;12.10;;;5.05;;
11094;SDS011;5601;44.490;11.400;2022-07-29T06:22:48;6.75;;;4.60;;
11094;SDS011;5601;44.490;11.400;2022-07-29T06:25:17;9.38;;;4.70;;
11094;SDS011;5601;44.490;11.400;2022-07-29T06:27:44;7.68;;;4.90;;
11094;SDS011;5601;44.490;11.400;2022-07-29T06:30:12;5.15;;;4.20;;
11094;SDS011;5601;44.490;11.400;2022-07-29T06:32:39;6.55;;;4.75;;
11094;SDS011;5601;44.490;11.400;2022-07-29T06:35:08;8.40;;;4.22;;
11094;SDS011;5601;44.490;11.400;2022-07-29T06:37:36;6.70;;;4.35;;
11094;SDS011;5601;44.490;11.400;2022-07-29T06:40:04;5.28;;;3.88;;
11094;SDS011;5601;44.490;11.400;2022-07-29T06:42:46;8.00;;;4.25;;
11094;SDS011;5601;44.490;11.400;2022-07-29T06:45:14;8.45;;;4.43;;
11094;SDS011;5601;44.490;11.400;2022-07-29T06:47:42;5.85;;;4.05;;
11094;SDS011;5601;44.490;11.400;2022-07-29T06:50:09;5.72;;;4.60;;
11094;SDS011;5601;44.490;11.400;2022-07-29T06:52:39;8.02;;;4.60;;
11094;SDS011;5601;44.490;11.400;2022-07-29T06:55:07;7.00;;;4.25;;
11094;SDS011;5601;44.490;11.400;2022-07-29T06:57:35;10.13;;;5.15;;
11094;SDS011;5601;44.490;11.400;2022-07-29T07:00:05;6.75;;;4.40;;
11094;SDS011;5601;44.490;11.400;2022-07-29T07:02:34;6.13;;;4.30;;
11094;SDS011;5601;44.490;11.400;2022-07-29T07:05:01;5.65;;;4.07;;
11094;SDS011;5601;44.490;11.400;2022-07-29T07:07:28;7.68;;;4.22;;
11094;SDS011;5601;44.490;11.400;2022-07-29T07:09:56;6.45;;;4.35;;
11094;SDS011;5601;44.490;11.400;2022-07-29T07:12:23;6.70;;;4.30;;
11094;SDS011;5601;44.490;11.400;2022-07-29T07:14:51;6.30;;;4.32;;
11094;SDS011;5601;44.490;11.400;2022-07-29T07:17:20;6.95;;;4.70;;
11094;SDS011;5601;44.490;11.400;2022-07-29T07:19:48;8.38;;;4.72;;
11094;SDS011;5601;44.490;11.400;2022-07-29T07:22:15;8.15;;;4.93;;
11094;SDS011;5601;44.490;11.400;2022-07-29T07:24:43;9.27;;;4.95;;
11094;SDS011;5601;44.490;11.400;2022-07-29T07:27:11;6.82;;;5.20;;
11094;SDS011;5601;44.490;11.400;2022-07-29T07:29:38;6.65;;;5.03;;
11094;SDS011;5601;44.490;11.400;2022-07-29T07:32:06;5.60;;;4.63;;
11094;SDS011;5601;44.490;11.400;2022-07-29T07:34:35;6.63;;;4.60;;
11094;SDS011;5601;44.490;11.400;2022-07-29T07:37:03;7.25;;;5.15;;
11094;SDS011;5601;44.490;11.400;2022-07-29T07:39:30;6.75;;;4.90;;
11094;SDS011;5601;44.490;11.400;2022-07-29T07:41:58;7.53;;;4.68;;
11094;SDS011;5601;44.490;11.400;2022-07-29T07:44:26;7.03;;;5.03;;
11094;SDS011;5601;44.490;11.400;2022-07-29T07:46:54;8.32;;;5.10;;
11094;SDS011;5601;44.490;11.400;2022-07-29T07:49:21;9.10;;;5.68;;
11094;SDS011;5601;44.490;11.400;2022-07-29T07:51:50;9.20;;;5.45;;
11094;SDS011;5601;44.490;11.400;2022-07-29T07:54:18;6.65;;;5.57;;
11094;SDS011;5601;44.490;11.400;2022-07-29T07:56:46;9.23;;;5.32;;
11094;SDS011;5601;44.490;11.400;2022-07-29T07:59:14;10.43;;;5.90;;
11094;SDS011;5601;44.490;11.400;2022-07-29T08:01:42;10.30;;;5.85;;
11094;SDS011;5601;44.490;11.400;2022-07-29T08:04:09;8.07;;;5.75;;
11094;SDS011;5601;44.490;11.400;2022-07-29T08:06:37;8.65;;;5.30;;
11094;SDS011;5601;44.490;11.400;2022-07-29T08:09:05;9.95;;;5.38;;
11094;SDS011;5601;44.490;11.400;2022-07-29T08:11:33;8.25;;;5.10;;
11094;SDS011;5601;44.490;11.400;2022-07-29T08:14:00;10.95;;;5.50;;
11094;SDS011;5601;44.490;11.400;2022-07-29T08:16:28;6.90;;;5.45;;
11094;SDS011;5601;44.490;11.400;2022-07-29T08:18:55;10.48;;;5.78;;
11094;SDS011;5601;44.490;11.400;2022-07-29T08:21:23;8.18;;;5.97;;
11094;SDS011;5601;44.490;11.400;2022-07-29T08:23:51;7.68;;;5.65;;
11094;SDS011;5601;44.490;11.400;2022-07-29T08:26:40;7.60;;;5.35;;
11094;SDS011;5601;44.490;11.400;2022-07-29T08:29:08;7.95;;;5.35;;
11094;SDS011;5601;44.490;11.400;2022-07-29T08:31:36;10.35;;;5.50;;
11094;SDS011;5601;44.490;11.400;2022-07-29T08:34:03;7.97;;;5.18;;
11094;SDS011;5601;44.490;11.400;2022-07-29T08:36:32;8.23;;;5.03;;
11094;SDS011;5601;44.490;11.400;2022-07-29T08:38:59;9.00;;;5.43;;
11094;SDS011;5601;44.490;11.400;2022-07-29T08:41:28;12.10;;;5.13;;
11094;SDS011;5601;44.490;11.400;2022-07-29T08:43:58;7.47;;;4.95;;
11094;SDS011;5601;44.490;11.400;2022-07-29T08:46:25;7.18;;;4.85;;
11094;SDS011;5601;44.490;11.400;2022-07-29T08:48:53;8.73;;;5.00;;
11094;SDS011;5601;44.490;11.400;2022-07-29T08:51:22;15.75;;;5.57;;
11094;SDS011;5601;44.490;11.400;2022-07-29T08:53:51;7.15;;;4.70;;
11094;SDS011;5601;44.490;11.400;2022-07-29T08:56:21;8.27;;;4.50;;
11094;SDS011;5601;44.490;11.400;2022-07-29T08:58:49;7.22;;;4.43;;
11094;SDS011;5601;44.490;11.400;2022-07-29T09:01:20;8.60;;;5.10;;
11094;SDS011;5601;44.490;11.400;2022-07-29T09:03:49;11.18;;;5.18;;
11094;SDS011;5601;44.490;11.400;2022-07-29T09:06:21;7.15;;;4.80;;
11094;SDS011;5601;44.490;11.400;2022-07-29T09:08:48;8.50;;;4.95;;
11094;SDS011;5601;44.490;11.400;2022-07-29T09:11:16;9.10;;;4.95;;
11094;SDS011;5601;44.490;11.400;2022-07-29T09:13:43;9.32;;;5.18;;
11094;SDS011;5601;44.490;11.400;2022-07-29T09:16:11;6.65;;;4.45;;
11094;SDS011;5601;44.490;11.400;2022-07-29T09:18:42;5.32;;;4.55;;
11094;SDS011;5601;44.490;11.400;2022-07-29T09:21:11;9.52;;;5.75;;
11094;SDS011;5601;44.490;11.400;2022-07-29T09:24:00;7.38;;;4.97;;
11094;SDS011;5601;44.490;11.400;2022-07-29T09:26:29;9.10;;;4.88;;
11094;SDS011;5601;44.490;11.400;2022-07-29T09:28:57;7.45;;;5.45;;
11094;SDS011;5601;44.490;11.400;2022-07-29T09:31:32;10.52;;;5.38;;
11094;SDS011;5601;44.490;11.400;2022-07-29T09:34:03;6.68;;;4.68;;
11094;SDS011;5601;44.490;11.400;2022-07-29T09:36:31;6.53;;;4.70;;
11094;SDS011;5601;44.490;11.400;2022-07-29T09:39:06;7.20;;;4.95;;
11094;SDS011;5601;44.490;11.400;2022-07-29T09:41:43;6.80;;;4.70;;
11094;SDS011;5601;44.490;11.400;2022-07-29T09:44:12;10.18;;;4.35;;
11094;SDS011;5601;44.490;11.400;2022-07-29T09:46:40;7.03;;;4.95;;
11094;SDS011;5601;44.490;11.400;2022-07-29T09:49:20;6.15;;;4.65;;
11094;SDS011;5601;44.490;11.400;2022-07-29T09:51:47;5.15;;;4.22;;
11094;SDS011;5601;44.490;11.400;2022-07-29T09:54:25;7.47;;;4.53;;
11094;SDS011;5601;44.490;11.400;2022-07-29T09:56:54;6.85;;;4.38;;
11094;SDS011;5601;44.490;11.400;2022-07-29T09:59:21;5.28;;;4.30;;
11094;SDS011;5601;44.490;11.400;2022-07-29T10:01:51;6.63;;;4.72;;
11094;SDS011;5601;44.490;11.400;2022-07-29T10:04:20;5.82;;;3.97;;
11094;SDS011;5601;44.490;11.400;2022-07-29T10:06:57;5.35;;;4.32;;
11094;SDS011;5601;44.490;11.400;2022-07-29T10:09:26;9.35;;;4.68;;
11094;SDS011;5601;44.490;11.400;2022-07-29T10:12:02;8.05;;;4.50;;
11094;SDS011;5601;44.490;11.400;2022-07-29T10:14:31;7.55;;;4.55;;
11094;SDS011;5601;44.490;11.400;2022-07-29T10:16:59;5.07;;;4.32;;
11094;SDS011;5601;44.490;11.400;2022-07-29T10:19:30;6.05;;;4.93;;
11094;SDS011;5601;44.490;11.400;2022-07-29T10:21:58;4.97;;;4.28;;
11094;SDS011;5601;44.490;11.400;2022-07-29T10:24:27;8.65;;;4.72;;
11094;SDS011;5601;44.490;11.400;2022-07-29T10:26:56;7.25;;;4.32;;
11094;SDS011;5601;44.490;11.400;2022-07-29T10:29:26;5.80;;;4.80;;
11094;SDS011;5601;44.490;11.400;2022-07-29T10:31:59;6.80;;;4.55;;
11094;SDS011;5601;44.490;11.400;2022-07-29T10:35:06;6.85;;;4.53;;
11094;SDS011;5601;44.490;11.400;2022-07-29T10:37:46;5.47;;;4.28;;
11094;SDS011;5601;44.490;11.400;2022-07-29T10:40:28;7.82;;;4.05;;
11094;SDS011;5601;44.490;11.400;2022-07-29T10:43:21;6.68;;;4.43;;
11094;SDS011;5601;44.490;11.400;2022-07-29T10:45:54;8.25;;;4.68;;
11094;SDS011;5601;44.490;11.400;2022-07-29T10:48:23;7.13;;;4.93;;
11094;SDS011;5601;44.490;11.400;2022-07-29T10:50:53;6.35;;;4.35;;
11094;SDS011;5601;44.490;11.400;2022-07-29T10:53:21;5.70;;;4.47;;
11094;SDS011;5601;44.490;11.400;2022-07-29T10:55:49;5.03;;;4.07;;
11094;SDS011;5601;44.490;11.400;2022-07-29T10:58:18;6.95;;;4.47;;
11094;SDS011;5601;44.490;11.400;2022-07-29T11:00:48;5.20;;;4.15;;
11094;SDS011;5601;44.490;11.400;2022-07-29T11:06:10;7.75;;;4.45;;
11094;SDS011;5601;44.490;11.400;2022-07-29T11:08:37;6.25;;;4.47;;
11094;SDS011;5601;44.490;11.400;2022-07-29T11:14:05;7.60;;;4.38;;
11094;SDS011;5601;44.490;11.400;2022-07-29T11:19:26;5.35;;;4.82;;
11094;SDS011;5601;44.490;11.400;2022-07-29T11:21:55;5.13;;;3.95;;
11094;SDS011;5601;44.490;11.400;2022-07-29T11:24:23;5.95;;;4.43;;
11094;SDS011;5601;44.490;11.400;2022-07-29T11:27:06;6.75;;;4.30;;
11094;SDS011;5601;44.490;11.400;2022-07-29T11:29:35;11.02;;;3.85;;
11094;SDS011;5601;44.490;11.400;2022-07-29T11:32:09;6.20;;;4.40;;
11094;SDS011;5601;44.490;11.400;2022-07-29T11:34:39;7.35;;;3.80;;
11094;SDS011;5601;44.490;11.400;2022-07-29T11:37:21;5.93;;;3.65;;
11094;SDS011;5601;44.490;11.400;2022-07-29T11:40:09;4.88;;;4.15;;
11094;SDS011;5601;44.490;11.400;2022-07-29T11:42:44;5.78;;;3.72;;
11094;SDS011;5601;44.490;11.400;2022-07-29T11:45:13;6.65;;;3.70;;
11094;SDS011;5601;44.490;11.400;2022-07-29T11:47:47;5.20;;;4.22;;
11094;SDS011;5601;44.490;11.400;2022-07-29T11:50:18;4.53;;;4.07;;
11094;SDS011;5601;44.490;11.400;2022-07-29T22:47:12;13.10;;;10.65;;
11094;SDS011;5601;44.490;11.400;2022-07-29T22:49:40;12.55;;;9.50;;
11094;SDS011;5601;44.490;11.400;2022-07-29T22:52:07;12.73;;;9.70;;
11094;SDS011;5601;44.490;11.400;2022-07-29T22:54:35;13.05;;;10.25;;
11094;SDS011;5601;44.490;11.400;2022-07-29T22:57:02;14.93;;;9.70;;
11094;SDS011;5601;44.490;11.400;2022-07-29T22:59:30;13.32;;;10.10;;
11094;SDS011;5601;44.490;11.400;2022-07-29T23:01:57;11.13;;;9.05;;
11094;SDS011;5601;44.490;11.400;2022-07-29T23:04:26;12.95;;;8.85;;
11094;SDS011;5601;44.490;11.400;2022-07-29T23:06:53;12.75;;;9.73;;
11094;SDS011;5601;44.490;11.400;2022-07-29T23:09:21;12.60;;;10.02;;
11094;SDS011;5601;44.490;11.400;2022-07-29T23:11:48;13.65;;;9.90;;
11094;SDS011;5601;44.490;11.400;2022-07-29T23:14:16;12.35;;;9.98;;
11094;SDS011;5601;44.490;11.400;2022-07-29T23:16:43;13.85;;;10.13;;
11094;SDS011;5601;44.490;11.400;2022-07-29T23:19:11;14.77;;;10.88;;
11094;SDS011;5601;44.490;11.400;2022-07-29T23:21:40;14.23;;;11.32;;
11094;SDS011;5601;44.490;11.400;2022-07-29T23:24:07;12.93;;;10.50;;
11094;SDS011;5601;44.490;11.400;2022-07-29T23:26:37;15.73;;;10.85;;
11094;SDS011;5601;44.490;11.400;2022-07-29T23:29:04;13.85;;;11.07;;
11094;SDS011;5601;44.490;11.400;2022-07-29T23:31:32;14.05;;;10.88;;
11094;SDS011;5601;44.490;11.400;2022-07-29T23:34:00;14.05;;;10.75;;
11094;SDS011;5601;44.490;11.400;2022-07-29T23:36:27;14.88;;;10.93;;
11094;SDS011;5601;44.490;11.400;2022-07-29T23:38:56;15.52;;;11.10;;
11094;SDS011;5601;44.490;11.400;2022-07-29T23:41:27;14.80;;;10.73;;
11094;SDS011;5601;44.490;11.400;2022-07-29T23:43:55;12.35;;;10.05;;
11094;SDS011;5601;44.490;11.400;2022-07-29T23:46:22;10.88;;;9.35;;
11094;SDS011;5601;44.490;11.400;2022-07-29T23:48:50;12.73;;;9.40;;
11094;SDS011;5601;44.490;11.400;2022-07-29T23:51:17;11.45;;;9.05;;
11094;SDS011;5601;44.490;11.400;2022-07-29T23:53:44;11.60;;;9.35;;
11094;SDS011;5601;44.490;11.400;2022-07-29T23:56:13;10.77;;;8.35;;
11094;SDS011;5601;44.490;11.400;2022-07-29T23:58:41;12.52;;;8.57;;
